sensor_id;sensor_type;location;lat;lon;timestamp;P1;durP1;ratioP1;P2;durP2;ratioP2
46751;SDS011;32497;48.936;9.270;2023-02-28T00:00:36;1.40;;;0.50;;
46751;SDS011;32497;48.936;9.270;2023-02-28T00:05:38;1.07;;;0.27;;
46751;SDS011;32497;48.936;9.270;2023-02-28T00:10:39;0.53;;;0.40;;
46751;SDS011;32497;48.936;9.270;2023-02-28T00:15:41;0.70;;;0.50;;
46751;SDS011;32497;48.936;9.270;2023-02-28T00:20:43;0.70;;;0.37;;
46751;SDS011;32497;48.936;9.270;2023-02-28T00:25:44;1.03;;;0.60;;
46751;SDS011;32497;48.936;9.270;2023-02-28T00:30:46;1.50;;;0.77;;
46751;SDS011;32497;48.936;9.270;2023-02-28T00:35:48;1.23;;;0.53;;
46751;SDS011;32497;48.936;9.270;2023-02-28T00:40:49;1.27;;;0.80;;
46751;SDS011;32497;48.936;9.270;2023-02-28T00:45:51;2.13;;;0.80;;
46751;SDS011;32497;48.936;9.270;2023-02-28T00:50:52;0.70;;;0.47;;
46751;SDS011;32497;48.936;9.270;2023-02-28T00:55:54;1.20;;;0.67;;
46751;SDS011;32497;48.936;9.270;2023-02-28T01:00:56;2.97;;;0.60;;
46751;SDS011;32497;48.936;9.270;2023-02-28T01:05:57;3.10;;;0.40;;
46751;SDS011;32497;48.936;9.270;2023-02-28T01:11:06;0.73;;;0.70;;
46751;SDS011;32497;48.936;9.270;2023-02-28T01:16:09;1.10;;;0.50;;
46751;SDS011;32497;48.936;9.270;2023-02-28T01:21:12;1.17;;;0.43;;
46751;SDS011;32497;48.936;9.270;2023-02-28T01:26:18;1.80;;;0.77;;
46751;SDS011;32497;48.936;9.270;2023-02-28T01:31:22;2.00;;;0.77;;
46751;SDS011;32497;48.936;9.270;2023-02-28T01:36:24;0.60;;;0.30;;
46751;SDS011;32497;48.936;9.270;2023-02-28T01:41:27;0.60;;;0.50;;
46751;SDS011;32497;48.936;9.270;2023-02-28T01:46:31;0.97;;;0.83;;
46751;SDS011;32497;48.936;9.270;2023-02-28T01:51:35;1.57;;;0.50;;
46751;SDS011;32497;48.936;9.270;2023-02-28T01:56:41;1.33;;;0.70;;
46751;SDS011;32497;48.936;9.270;2023-02-28T02:01:48;1.20;;;0.43;;
46751;SDS011;32497;48.936;9.270;2023-02-28T02:06:50;0.60;;;0.37;;
46751;SDS011;32497;48.936;9.270;2023-02-28T02:11:51;1.03;;;0.60;;
46751;SDS011;32497;48.936;9.270;2023-02-28T02:17:00;0.90;;;0.70;;
46751;SDS011;32497;48.936;9.270;2023-02-28T02:27:59;2.50;;;0.90;;
46751;SDS011;32497;48.936;9.270;2023-02-28T02:33:28;0.60;;;0.47;;
46751;SDS011;32497;48.936;9.270;2023-02-28T02:38:57;0.50;;;0.33;;
46751;SDS011;32497;48.936;9.270;2023-02-28T02:44:04;1.97;;;1.53;;
46751;SDS011;32497;48.936;9.270;2023-02-28T02:49:13;1.13;;;1.00;;
46751;SDS011;32497;48.936;9.270;2023-02-28T02:54:21;1.57;;;0.60;;
46751;SDS011;32497;48.936;9.270;2023-02-28T02:59:24;1.10;;;0.67;;
46751;SDS011;32497;48.936;9.270;2023-02-28T03:04:30;1.37;;;0.47;;
46751;SDS011;32497;48.936;9.270;2023-02-28T03:09:36;4.77;;;1.10;;
46751;SDS011;32497;48.936;9.270;2023-02-28T03:14:42;1.70;;;0.77;;
46751;SDS011;32497;48.936;9.270;2023-02-28T03:19:59;2.03;;;0.80;;
46751;SDS011;32497;48.936;9.270;2023-02-28T03:25:11;2.73;;;0.60;;
46751;SDS011;32497;48.936;9.270;2023-02-28T03:30:22;2.07;;;1.10;;
46751;SDS011;32497;48.936;9.270;2023-02-28T03:35:25;2.33;;;1.10;;
46751;SDS011;32497;48.936;9.270;2023-02-28T03:40:32;0.67;;;0.50;;
46751;SDS011;32497;48.936;9.270;2023-02-28T03:45:35;3.00;;;1.20;;
46751;SDS011;32497;48.936;9.270;2023-02-28T03:50:39;1.67;;;1.17;;
46751;SDS011;32497;48.936;9.270;2023-02-28T03:55:44;3.70;;;0.80;;
46751;SDS011;32497;48.936;9.270;2023-02-28T04:00:49;1.63;;;0.63;;
46751;SDS011;32497;48.936;9.270;2023-02-28T04:05:55;2.07;;;1.13;;
46751;SDS011;32497;48.936;9.270;2023-02-28T04:11:00;9.80;;;1.50;;
46751;SDS011;32497;48.936;9.270;2023-02-28T04:16:06;2.30;;;1.33;;
46751;SDS011;32497;48.936;9.270;2023-02-28T04:21:07;2.90;;;1.20;;
46751;SDS011;32497;48.936;9.270;2023-02-28T04:26:10;1.97;;;0.87;;
46751;SDS011;32497;48.936;9.270;2023-02-28T04:31:11;1.13;;;0.60;;
46751;SDS011;32497;48.936;9.270;2023-02-28T04:36:12;3.27;;;1.17;;
46751;SDS011;32497;48.936;9.270;2023-02-28T04:41:15;1.63;;;0.97;;
46751;SDS011;32497;48.936;9.270;2023-02-28T04:46:16;4.40;;;1.70;;
46751;SDS011;32497;48.936;9.270;2023-02-28T04:51:18;2.20;;;1.20;;
46751;SDS011;32497;48.936;9.270;2023-02-28T04:56:20;1.17;;;0.77;;
46751;SDS011;32497;48.936;9.270;2023-02-28T05:01:23;1.50;;;0.90;;
46751;SDS011;32497;48.936;9.270;2023-02-28T05:06:26;2.10;;;1.67;;
46751;SDS011;32497;48.936;9.270;2023-02-28T05:11:30;1.57;;;0.93;;
46751;SDS011;32497;48.936;9.270;2023-02-28T05:16:33;2.00;;;1.17;;
46751;SDS011;32497;48.936;9.270;2023-02-28T05:21:35;4.67;;;1.60;;
46751;SDS011;32497;48.936;9.270;2023-02-28T05:26:40;3.73;;;1.53;;
46751;SDS011;32497;48.936;9.270;2023-02-28T05:31:42;2.70;;;1.13;;
46751;SDS011;32497;48.936;9.270;2023-02-28T05:36:43;1.70;;;0.73;;
46751;SDS011;32497;48.936;9.270;2023-02-28T05:41:46;2.10;;;1.30;;
46751;SDS011;32497;48.936;9.270;2023-02-28T05:46:47;2.37;;;1.27;;
46751;SDS011;32497;48.936;9.270;2023-02-28T05:51:48;2.57;;;1.30;;
46751;SDS011;32497;48.936;9.270;2023-02-28T05:56:51;2.43;;;1.57;;
46751;SDS011;32497;48.936;9.270;2023-02-28T06:01:52;3.30;;;1.20;;
46751;SDS011;32497;48.936;9.270;2023-02-28T06:06:53;2.97;;;1.17;;
46751;SDS011;32497;48.936;9.270;2023-02-28T06:11:56;4.43;;;1.47;;
46751;SDS011;32497;48.936;9.270;2023-02-28T06:16:58;1.33;;;0.90;;
46751;SDS011;32497;48.936;9.270;2023-02-28T06:21:59;3.23;;;1.20;;
46751;SDS011;32497;48.936;9.270;2023-02-28T06:27:02;4.93;;;1.53;;
46751;SDS011;32497;48.936;9.270;2023-02-28T06:32:03;2.83;;;0.97;;
46751;SDS011;32497;48.936;9.270;2023-02-28T06:37:04;3.30;;;1.43;;
46751;SDS011;32497;48.936;9.270;2023-02-28T06:42:07;2.17;;;1.13;;
46751;SDS011;32497;48.936;9.270;2023-02-28T06:47:08;4.03;;;1.63;;
46751;SDS011;32497;48.936;9.270;2023-02-28T06:52:09;2.20;;;1.03;;
46751;SDS011;32497;48.936;9.270;2023-02-28T06:57:12;3.57;;;1.50;;
46751;SDS011;32497;48.936;9.270;2023-02-28T07:02:13;2.40;;;0.93;;
46751;SDS011;32497;48.936;9.270;2023-02-28T07:07:14;6.07;;;2.40;;
46751;SDS011;32497;48.936;9.270;2023-02-28T07:12:16;4.30;;;1.50;;
46751;SDS011;32497;48.936;9.270;2023-02-28T07:17:17;6.43;;;2.17;;
46751;SDS011;32497;48.936;9.270;2023-02-28T07:22:19;3.13;;;1.03;;
46751;SDS011;32497;48.936;9.270;2023-02-28T07:27:21;3.30;;;1.40;;
46751;SDS011;32497;48.936;9.270;2023-02-28T07:32:22;4.30;;;1.60;;
46751;SDS011;32497;48.936;9.270;2023-02-28T07:37:23;3.93;;;1.70;;
46751;SDS011;32497;48.936;9.270;2023-02-28T07:42:26;5.03;;;1.83;;
46751;SDS011;32497;48.936;9.270;2023-02-28T07:47:28;6.40;;;2.40;;
46751;SDS011;32497;48.936;9.270;2023-02-28T07:52:29;3.83;;;1.43;;
46751;SDS011;32497;48.936;9.270;2023-02-28T07:57:32;5.03;;;1.53;;
46751;SDS011;32497;48.936;9.270;2023-02-28T08:02:33;8.53;;;2.00;;
46751;SDS011;32497;48.936;9.270;2023-02-28T08:07:34;4.53;;;1.80;;
46751;SDS011;32497;48.936;9.270;2023-02-28T08:12:37;5.30;;;2.13;;
46751;SDS011;32497;48.936;9.270;2023-02-28T08:17:38;3.30;;;1.63;;
46751;SDS011;32497;48.936;9.270;2023-02-28T08:22:39;8.03;;;1.83;;
46751;SDS011;32497;48.936;9.270;2023-02-28T08:27:41;5.07;;;1.97;;
46751;SDS011;32497;48.936;9.270;2023-02-28T08:32:42;5.27;;;2.50;;
46751;SDS011;32497;48.936;9.270;2023-02-28T08:37:43;5.07;;;2.33;;
46751;SDS011;32497;48.936;9.270;2023-02-28T08:42:46;5.73;;;2.10;;
46751;SDS011;32497;48.936;9.270;2023-02-28T08:47:47;6.53;;;2.67;;
46751;SDS011;32497;48.936;9.270;2023-02-28T08:52:48;6.73;;;2.57;;
46751;SDS011;32497;48.936;9.270;2023-02-28T08:57:51;4.23;;;2.20;;
46751;SDS011;32497;48.936;9.270;2023-02-28T09:02:52;5.07;;;2.17;;
46751;SDS011;32497;48.936;9.270;2023-02-28T09:07:53;6.17;;;2.67;;
46751;SDS011;32497;48.936;9.270;2023-02-28T09:12:55;5.97;;;3.13;;
46751;SDS011;32497;48.936;9.270;2023-02-28T09:17:56;4.57;;;2.20;;
46751;SDS011;32497;48.936;9.270;2023-02-28T09:22:57;5.27;;;2.60;;
46751;SDS011;32497;48.936;9.270;2023-02-28T09:28:00;6.80;;;2.77;;
46751;SDS011;32497;48.936;9.270;2023-02-28T09:33:01;4.33;;;2.50;;
46751;SDS011;32497;48.936;9.270;2023-02-28T09:38:03;6.93;;;2.90;;
46751;SDS011;32497;48.936;9.270;2023-02-28T09:43:06;4.90;;;2.10;;
46751;SDS011;32497;48.936;9.270;2023-02-28T09:48:14;7.03;;;2.73;;
46751;SDS011;32497;48.936;9.270;2023-02-28T09:53:19;7.07;;;2.83;;
46751;SDS011;32497;48.936;9.270;2023-02-28T09:58:28;6.57;;;3.03;;
46751;SDS011;32497;48.936;9.270;2023-02-28T10:03:35;3.87;;;2.57;;
46751;SDS011;32497;48.936;9.270;2023-02-28T10:08:40;5.83;;;2.57;;
46751;SDS011;32497;48.936;9.270;2023-02-28T10:13:50;5.67;;;2.43;;
46751;SDS011;32497;48.936;9.270;2023-02-28T10:18:54;6.70;;;3.13;;
46751;SDS011;32497;48.936;9.270;2023-02-28T10:24:02;6.77;;;2.90;;
46751;SDS011;32497;48.936;9.270;2023-02-28T10:29:12;6.07;;;2.93;;
46751;SDS011;32497;48.936;9.270;2023-02-28T10:34:14;6.60;;;2.60;;
46751;SDS011;32497;48.936;9.270;2023-02-28T10:39:34;5.07;;;2.50;;
46751;SDS011;32497;48.936;9.270;2023-02-28T10:44:38;5.27;;;2.87;;
46751;SDS011;32497;48.936;9.270;2023-02-28T10:49:39;5.53;;;3.27;;
46751;SDS011;32497;48.936;9.270;2023-02-28T10:54:48;3.77;;;2.50;;
46751;SDS011;32497;48.936;9.270;2023-02-28T10:59:51;7.30;;;3.03;;
46751;SDS011;32497;48.936;9.270;2023-02-28T11:04:53;4.57;;;2.43;;
46751;SDS011;32497;48.936;9.270;2023-02-28T11:09:55;5.23;;;2.57;;
46751;SDS011;32497;48.936;9.270;2023-02-28T11:15:00;6.47;;;2.90;;
46751;SDS011;32497;48.936;9.270;2023-02-28T11:20:04;6.40;;;2.80;;
46751;SDS011;32497;48.936;9.270;2023-02-28T11:25:09;5.10;;;2.43;;
46751;SDS011;32497;48.936;9.270;2023-02-28T11:30:32;5.37;;;2.70;;
46751;SDS011;32497;48.936;9.270;2023-02-28T11:35:36;5.07;;;2.20;;
46751;SDS011;32497;48.936;9.270;2023-02-28T11:40:42;5.73;;;2.90;;
46751;SDS011;32497;48.936;9.270;2023-02-28T11:45:54;5.23;;;2.60;;
46751;SDS011;32497;48.936;9.270;2023-02-28T11:51:08;6.90;;;2.83;;
46751;SDS011;32497;48.936;9.270;2023-02-28T11:56:16;6.67;;;2.80;;
46751;SDS011;32497;48.936;9.270;2023-02-28T12:01:28;6.50;;;3.10;;
46751;SDS011;32497;48.936;9.270;2023-02-28T12:06:38;4.10;;;2.40;;
46751;SDS011;32497;48.936;9.270;2023-02-28T12:11:48;7.40;;;2.90;;
46751;SDS011;32497;48.936;9.270;2023-02-28T12:16:57;4.63;;;2.90;;
46751;SDS011;32497;48.936;9.270;2023-02-28T12:22:12;5.57;;;2.63;;
46751;SDS011;32497;48.936;9.270;2023-02-28T12:27:23;4.67;;;2.80;;
46751;SDS011;32497;48.936;9.270;2023-02-28T12:32:30;9.23;;;2.50;;
46751;SDS011;32497;48.936;9.270;2023-02-28T12:37:33;4.47;;;2.30;;
46751;SDS011;32497;48.936;9.270;2023-02-28T12:42:39;6.70;;;2.70;;
46751;SDS011;32497;48.936;9.270;2023-02-28T12:47:46;5.97;;;2.73;;
46751;SDS011;32497;48.936;9.270;2023-02-28T12:52:53;7.27;;;2.67;;
46751;SDS011;32497;48.936;9.270;2023-02-28T12:58:02;5.57;;;2.63;;
46751;SDS011;32497;48.936;9.270;2023-02-28T13:03:24;4.57;;;2.40;;
46751;SDS011;32497;48.936;9.270;2023-02-28T13:08:49;6.27;;;2.20;;
46751;SDS011;32497;48.936;9.270;2023-02-28T13:14:05;6.27;;;2.90;;
46751;SDS011;32497;48.936;9.270;2023-02-28T13:19:18;6.17;;;2.67;;
46751;SDS011;32497;48.936;9.270;2023-02-28T13:24:42;4.33;;;2.23;;
46751;SDS011;32497;48.936;9.270;2023-02-28T13:29:46;4.17;;;2.33;;
46751;SDS011;32497;48.936;9.270;2023-02-28T13:35:12;6.70;;;2.70;;
46751;SDS011;32497;48.936;9.270;2023-02-28T13:40:28;7.33;;;2.90;;
46751;SDS011;32497;48.936;9.270;2023-02-28T13:45:31;7.20;;;2.80;;
46751;SDS011;32497;48.936;9.270;2023-02-28T13:50:35;4.13;;;2.40;;
46751;SDS011;32497;48.936;9.270;2023-02-28T13:55:37;5.73;;;3.17;;
46751;SDS011;32497;48.936;9.270;2023-02-28T14:00:49;5.23;;;2.60;;
46751;SDS011;32497;48.936;9.270;2023-02-28T14:06:09;6.50;;;3.10;;
46751;SDS011;32497;48.936;9.270;2023-02-28T14:11:26;6.97;;;2.27;;
46751;SDS011;32497;48.936;9.270;2023-02-28T14:16:35;4.67;;;2.50;;
46751;SDS011;32497;48.936;9.270;2023-02-28T14:21:43;5.10;;;2.67;;
46751;SDS011;32497;48.936;9.270;2023-02-28T14:32:22;4.10;;;2.67;;
46751;SDS011;32497;48.936;9.270;2023-02-28T14:37:30;4.57;;;2.30;;
46751;SDS011;32497;48.936;9.270;2023-02-28T14:42:37;5.33;;;2.80;;
46751;SDS011;32497;48.936;9.270;2023-02-28T14:47:38;5.43;;;2.73;;
46751;SDS011;32497;48.936;9.270;2023-02-28T14:52:44;5.67;;;3.13;;
46751;SDS011;32497;48.936;9.270;2023-02-28T14:57:50;4.83;;;2.80;;
46751;SDS011;32497;48.936;9.270;2023-02-28T15:02:53;6.97;;;3.37;;
46751;SDS011;32497;48.936;9.270;2023-02-28T15:08:05;7.17;;;3.10;;
46751;SDS011;32497;48.936;9.270;2023-02-28T15:13:12;3.67;;;2.37;;
46751;SDS011;32497;48.936;9.270;2023-02-28T15:18:15;4.57;;;2.80;;
46751;SDS011;32497;48.936;9.270;2023-02-28T15:23:28;5.27;;;2.63;;
46751;SDS011;32497;48.936;9.270;2023-02-28T15:28:29;5.43;;;2.63;;
46751;SDS011;32497;48.936;9.270;2023-02-28T15:33:31;4.97;;;2.93;;
46751;SDS011;32497;48.936;9.270;2023-02-28T15:38:35;6.40;;;2.70;;
46751;SDS011;32497;48.936;9.270;2023-02-28T15:43:37;3.50;;;2.37;;
46751;SDS011;32497;48.936;9.270;2023-02-28T15:48:42;5.43;;;2.80;;
46751;SDS011;32497;48.936;9.270;2023-02-28T15:53:47;5.13;;;2.90;;
46751;SDS011;32497;48.936;9.270;2023-02-28T15:58:52;4.70;;;2.43;;
46751;SDS011;32497;48.936;9.270;2023-02-28T16:03:56;5.03;;;2.70;;
46751;SDS011;32497;48.936;9.270;2023-02-28T16:09:01;6.93;;;3.13;;
46751;SDS011;32497;48.936;9.270;2023-02-28T16:14:03;5.43;;;2.93;;
46751;SDS011;32497;48.936;9.270;2023-02-28T16:19:07;8.07;;;3.20;;
46751;SDS011;32497;48.936;9.270;2023-02-28T16:24:10;8.73;;;3.17;;
46751;SDS011;32497;48.936;9.270;2023-02-28T16:29:12;6.80;;;2.70;;
46751;SDS011;32497;48.936;9.270;2023-02-28T16:34:16;5.30;;;2.83;;
46751;SDS011;32497;48.936;9.270;2023-02-28T16:39:18;5.87;;;3.13;;
46751;SDS011;32497;48.936;9.270;2023-02-28T16:44:21;6.63;;;2.77;;
46751;SDS011;32497;48.936;9.270;2023-02-28T16:49:27;7.53;;;3.30;;
46751;SDS011;32497;48.936;9.270;2023-02-28T16:54:30;6.90;;;3.13;;
46751;SDS011;32497;48.936;9.270;2023-02-28T16:59:31;7.60;;;3.70;;
46751;SDS011;32497;48.936;9.270;2023-02-28T17:04:32;8.80;;;4.10;;
46751;SDS011;32497;48.936;9.270;2023-02-28T17:09:35;9.07;;;3.67;;
46751;SDS011;32497;48.936;9.270;2023-02-28T17:14:36;5.20;;;2.77;;
46751;SDS011;32497;48.936;9.270;2023-02-28T17:19:37;8.70;;;3.50;;
46751;SDS011;32497;48.936;9.270;2023-02-28T17:24:40;6.53;;;3.43;;
46751;SDS011;32497;48.936;9.270;2023-02-28T17:29:41;8.33;;;3.03;;
46751;SDS011;32497;48.936;9.270;2023-02-28T17:34:42;9.60;;;3.17;;
46751;SDS011;32497;48.936;9.270;2023-02-28T17:39:44;5.83;;;3.13;;
46751;SDS011;32497;48.936;9.270;2023-02-28T17:44:45;6.90;;;3.27;;
46751;SDS011;32497;48.936;9.270;2023-02-28T17:49:47;8.70;;;3.60;;
46751;SDS011;32497;48.936;9.270;2023-02-28T17:54:49;9.73;;;3.43;;
46751;SDS011;32497;48.936;9.270;2023-02-28T17:59:50;6.90;;;3.00;;
46751;SDS011;32497;48.936;9.270;2023-02-28T18:04:51;7.67;;;3.60;;
46751;SDS011;32497;48.936;9.270;2023-02-28T18:09:54;11.60;;;3.77;;
46751;SDS011;32497;48.936;9.270;2023-02-28T18:14:55;5.13;;;2.23;;
46751;SDS011;32497;48.936;9.270;2023-02-28T18:19:56;15.90;;;4.17;;
46751;SDS011;32497;48.936;9.270;2023-02-28T18:24:58;6.87;;;2.87;;
46751;SDS011;32497;48.936;9.270;2023-02-28T18:30:00;8.47;;;3.30;;
46751;SDS011;32497;48.936;9.270;2023-02-28T18:35:01;6.87;;;3.40;;
46751;SDS011;32497;48.936;9.270;2023-02-28T18:40:04;10.10;;;3.20;;
46751;SDS011;32497;48.936;9.270;2023-02-28T18:45:06;7.03;;;3.40;;
46751;SDS011;32497;48.936;9.270;2023-02-28T18:50:09;6.70;;;3.03;;
46751;SDS011;32497;48.936;9.270;2023-02-28T18:55:12;7.87;;;3.17;;
46751;SDS011;32497;48.936;9.270;2023-02-28T19:00:14;7.97;;;3.43;;
46751;SDS011;32497;48.936;9.270;2023-02-28T19:05:16;9.57;;;3.50;;
46751;SDS011;32497;48.936;9.270;2023-02-28T19:10:20;6.90;;;3.43;;
46751;SDS011;32497;48.936;9.270;2023-02-28T19:15:21;7.97;;;3.47;;
46751;SDS011;32497;48.936;9.270;2023-02-28T19:20:22;12.77;;;4.07;;
46751;SDS011;32497;48.936;9.270;2023-02-28T19:25:25;6.27;;;2.83;;
46751;SDS011;32497;48.936;9.270;2023-02-28T19:30:26;5.77;;;3.20;;
46751;SDS011;32497;48.936;9.270;2023-02-28T19:35:27;5.00;;;2.90;;
46751;SDS011;32497;48.936;9.270;2023-02-28T19:40:30;6.63;;;2.10;;
46751;SDS011;32497;48.936;9.270;2023-02-28T19:45:31;6.50;;;3.33;;
46751;SDS011;32497;48.936;9.270;2023-02-28T19:50:32;8.43;;;2.87;;
46751;SDS011;32497;48.936;9.270;2023-02-28T19:55:37;6.57;;;3.10;;
46751;SDS011;32497;48.936;9.270;2023-02-28T20:00:39;8.13;;;3.50;;
46751;SDS011;32497;48.936;9.270;2023-02-28T20:05:40;10.03;;;2.80;;
46751;SDS011;32497;48.936;9.270;2023-02-28T20:10:42;8.03;;;3.00;;
46751;SDS011;32497;48.936;9.270;2023-02-28T20:15:43;8.97;;;3.47;;
46751;SDS011;32497;48.936;9.270;2023-02-28T20:20:44;6.03;;;3.57;;
46751;SDS011;32497;48.936;9.270;2023-02-28T20:25:47;8.50;;;3.20;;
46751;SDS011;32497;48.936;9.270;2023-02-28T20:30:48;7.47;;;2.83;;
46751;SDS011;32497;48.936;9.270;2023-02-28T20:35:50;6.53;;;2.83;;
46751;SDS011;32497;48.936;9.270;2023-02-28T20:40:59;7.77;;;2.43;;
46751;SDS011;32497;48.936;9.270;2023-02-28T20:46:01;8.63;;;3.40;;
46751;SDS011;32497;48.936;9.270;2023-02-28T20:51:03;8.07;;;2.97;;
46751;SDS011;32497;48.936;9.270;2023-02-28T20:56:07;8.97;;;3.27;;
46751;SDS011;32497;48.936;9.270;2023-02-28T21:01:10;8.30;;;3.40;;
46751;SDS011;32497;48.936;9.270;2023-02-28T21:06:13;5.57;;;2.80;;
46751;SDS011;32497;48.936;9.270;2023-02-28T21:11:17;7.93;;;3.57;;
46751;SDS011;32497;48.936;9.270;2023-02-28T21:16:20;4.33;;;2.33;;
46751;SDS011;32497;48.936;9.270;2023-02-28T21:21:23;6.10;;;2.60;;
46751;SDS011;32497;48.936;9.270;2023-02-28T21:26:26;6.37;;;3.23;;
46751;SDS011;32497;48.936;9.270;2023-02-28T21:31:27;7.87;;;2.87;;
46751;SDS011;32497;48.936;9.270;2023-02-28T21:36:30;6.40;;;2.60;;
46751;SDS011;32497;48.936;9.270;2023-02-28T21:41:36;8.70;;;3.23;;
46751;SDS011;32497;48.936;9.270;2023-02-28T21:46:37;4.93;;;2.40;;
46751;SDS011;32497;48.936;9.270;2023-02-28T21:51:38;5.37;;;2.30;;
46751;SDS011;32497;48.936;9.270;2023-02-28T21:56:41;5.73;;;3.23;;
46751;SDS011;32497;48.936;9.270;2023-02-28T22:01:42;6.70;;;2.93;;
46751;SDS011;32497;48.936;9.270;2023-02-28T22:06:43;9.17;;;2.93;;
46751;SDS011;32497;48.936;9.270;2023-02-28T22:11:46;8.13;;;2.87;;
46751;SDS011;32497;48.936;9.270;2023-02-28T22:16:47;8.33;;;3.23;;
46751;SDS011;32497;48.936;9.270;2023-02-28T22:21:49;6.10;;;2.73;;
46751;SDS011;32497;48.936;9.270;2023-02-28T22:26:52;9.83;;;3.37;;
46751;SDS011;32497;48.936;9.270;2023-02-28T22:31:53;6.40;;;2.80;;
46751;SDS011;32497;48.936;9.270;2023-02-28T22:36:54;6.23;;;2.40;;
46751;SDS011;32497;48.936;9.270;2023-02-28T22:41:57;4.93;;;2.53;;
46751;SDS011;32497;48.936;9.270;2023-02-28T22:46:58;4.50;;;2.47;;
46751;SDS011;32497;48.936;9.270;2023-02-28T22:51:59;8.23;;;2.23;;
46751;SDS011;32497;48.936;9.270;2023-02-28T22:57:01;9.23;;;2.10;;
46751;SDS011;32497;48.936;9.270;2023-02-28T23:02:02;5.57;;;2.60;;
46751;SDS011;32497;48.936;9.270;2023-02-28T23:07:03;5.00;;;2.33;;
46751;SDS011;32497;48.936;9.270;2023-02-28T23:12:06;6.70;;;2.43;;
46751;SDS011;32497;48.936;9.270;2023-02-28T23:17:07;7.77;;;3.13;;
46751;SDS011;32497;48.936;9.270;2023-02-28T23:22:09;4.17;;;2.33;;
46751;SDS011;32497;48.936;9.270;2023-02-28T23:27:11;8.17;;;2.87;;
46751;SDS011;32497;48.936;9.270;2023-02-28T23:32:13;10.17;;;3.63;;
46751;SDS011;32497;48.936;9.270;2023-02-28T23:37:14;5.07;;;2.83;;
46751;SDS011;32497;48.936;9.270;2023-02-28T23:42:16;3.93;;;2.23;;
46751;SDS011;32497;48.936;9.270;2023-02-28T23:47:17;8.47;;;3.37;;
46751;SDS011;32497;48.936;9.270;2023-02-28T23:52:18;7.67;;;3.30;;
46751;SDS011;32497;48.936;9.270;2023-02-28T23:57:21;6.03;;;2.23;;
